Time;durP1;ratioP1;P1;durP2;ratioP2;P2;SDS_P1;SDS_P2;PMS_P1;PMS_P2;Temp;Humidity;BMP_temperature;BMP_pressure;BME280_temperature;BME280_humidity;BME280_pressure;Samples;Min_cycle;Max_cycle;Signal;HPM_P1;HPM_P2
2023/06/21 00:00:15;;;;;;;;;;;;;;;28.42;38.01;100770.22;5092148;28;867;-24
2023/06/21 00:02:43;;;;;;;;;;;;;;;28.33;38.51;100775.75;5097661;28;1438;-25
2023/06/21 00:05:09;;;;;;;;;;;;;;;28.32;37.98;100773.19;5084230;28;1126;-22
2023/06/21 00:07:35;;;;;;;;;;;;;;;28.45;38.43;100770.66;5097132;28;1105;-22
2023/06/21 00:10:01;;;;;;;;;;;;;;;28.46;37.98;100768.81;5083688;28;1137;-22
2023/06/21 00:12:27;;;;;;;;;;;;;;;28.42;38.07;100770.22;5089737;28;1979;-22
2023/06/21 00:14:52;;;;;;;;;;;;;;;28.47;37.87;100765.06;5077335;28;1078;-22
2023/06/21 00:17:18;;;;;;;;;;;;;;;28.36;38.17;100761.81;5083560;28;1226;-23
2023/06/21 00:19:43;;;;;;;;;;;;;;;28.45;38.02;100759.00;5097566;28;1062;-23
2023/06/21 00:22:09;;;;;;;;;;;;;;;28.53;37.60;100766.19;5077481;28;1022;-22
2023/06/21 00:24:35;;;;;;;;;;;;;;;28.57;37.54;100765.59;5066378;28;920;-22
2023/06/21 00:27:00;;;;;;;;;;;;;;;28.39;37.81;100766.03;5090440;28;1090;-23
2023/06/21 00:29:25;;;;;;;;;;;;;;;28.43;37.57;100766.47;5089875;28;1046;-22
2023/06/21 00:31:51;;;;;;;;;;;;;;;28.59;36.82;100766.22;5077755;28;1909;-23
2023/06/21 00:34:17;;;;;;;;;;;;;;;28.40;37.92;100756.88;5059419;28;1821;-23
2023/06/21 00:36:43;;;;;;;;;;;;;;;28.47;37.45;100759.66;5077390;28;1149;-25
2023/06/21 00:39:09;;;;;;;;;;;;;;;28.47;37.58;100757.81;5076771;28;1154;-22
2023/06/21 00:41:37;;;;;;;;;;;;;;;28.44;37.49;100751.94;5076959;28;972;-25
2023/06/21 00:44:02;;;;;;;;;;;;;;;28.55;37.36;100761.38;5090281;28;1071;-21
2023/06/21 00:46:29;;;;;;;;;;;;;;;28.45;36.92;100753.59;5059850;28;1198;-21
2023/06/21 00:48:57;;;;;;;;;;;;;;;28.58;36.65;100753.72;5082914;28;1049;-22
2023/06/21 00:51:22;;;;;;;;;;;;;;;28.58;37.05;100750.19;5076632;28;1906;-23
2023/06/21 00:53:48;;;;;;;;;;;;;;;28.65;36.92;100740.25;5090266;28;1099;-22
2023/06/21 00:56:16;;;;;;;;;;;;;;;28.51;37.41;100739.28;5058525;28;1221;-24
2023/06/21 00:58:43;;;;;;;;;;;;;;;28.55;37.24;100737.88;5071356;28;1060;-22
2023/06/21 01:01:08;;;;;;;;;;;;;;;28.41;37.31;100741.50;5083863;28;1094;-23
2023/06/21 01:03:34;;;;;;;;;;;;;;;28.50;37.00;100742.19;5082632;28;1189;-22
2023/06/21 01:06:02;;;;;;;;;;;;;;;28.51;37.02;100742.00;5076559;28;1099;-24
2023/06/21 01:08:36;;;;;;;;;;;;;;;28.58;36.59;100745.63;5059130;28;1357;-23
2023/06/21 01:11:04;;;;;;;;;;;;;;;28.64;36.86;100752.13;5069590;28;1906;-24
2023/06/21 01:13:36;;;;;;;;;;;;;;;28.43;36.75;100751.06;5076379;28;1241;-22
2023/06/21 01:16:03;;;;;;;;;;;;;;;28.51;37.07;100743.88;5075902;28;1155;-24
2023/06/21 01:18:32;;;;;;;;;;;;;;;28.57;37.01;100749.38;5061928;28;1178;-23
2023/06/21 01:20:57;;;;;;;;;;;;;;;28.64;36.38;100751.28;5086573;28;1145;-23
2023/06/21 01:23:26;;;;;;;;;;;;;;;28.52;36.95;100749.09;5078845;28;1041;-22
2023/06/21 01:26:07;;;;;;;;;;;;;;;28.58;36.74;100750.19;5058006;28;1074;-22
2023/06/21 01:28:39;;;;;;;;;;;;;;;28.59;36.65;100738.34;5095086;28;1132;-22
2023/06/21 01:31:04;;;;;;;;;;;;;;;28.56;36.74;100744.16;5096688;28;1910;-22
2023/06/21 01:33:31;;;;;;;;;;;;;;;28.60;36.90;100748.13;5082510;28;1161;-23
2023/06/21 01:35:57;;;;;;;;;;;;;;;28.61;36.21;100747.13;5093105;28;1146;-21
2023/06/21 01:38:24;;;;;;;;;;;;;;;28.56;36.34;100753.06;5075953;28;1055;-22
2023/06/21 01:40:50;;;;;;;;;;;;;;;28.54;36.75;100741.63;5057935;28;1557;-24
2023/06/21 01:43:16;;;;;;;;;;;;;;;28.44;36.99;100752.78;5095716;28;1110;-23
2023/06/21 01:45:43;;;;;;;;;;;;;;;28.48;36.73;100754.06;5064358;28;1202;-22
2023/06/21 01:48:09;;;;;;;;;;;;;;;28.48;36.69;100754.06;5090764;28;1146;-24
2023/06/21 01:50:35;;;;;;;;;;;;;;;28.48;36.98;100754.06;5064474;28;1910;-25
2023/06/21 01:53:00;;;;;;;;;;;;;;;28.42;37.05;100752.13;5074272;28;1088;-23
2023/06/21 01:55:26;;;;;;;;;;;;;;;28.49;36.98;100754.91;5076100;28;1078;-24
2023/06/21 01:57:52;;;;;;;;;;;;;;;28.46;36.60;100750.69;5057886;28;1189;-24
2023/06/21 02:00:21;;;;;;;;;;;;;;;28.52;36.73;100745.53;5061142;28;1227;-25
2023/06/21 02:02:52;;;;;;;;;;;;;;;28.38;36.93;100747.28;5057480;28;1078;-24
2023/06/21 02:05:18;;;;;;;;;;;;;;;28.43;36.82;100753.78;5089321;28;1252;-24
2023/06/21 02:07:47;;;;;;;;;;;;;;;28.48;36.79;100756.75;5058193;28;1217;-23
2023/06/21 02:10:13;;;;;;;;;;;;;;;28.45;36.87;100757.16;5075820;28;1175;-23
2023/06/21 02:12:40;;;;;;;;;;;;;;;28.50;36.65;100766.53;5068737;28;1967;-22
2023/06/21 02:15:06;;;;;;;;;;;;;;;28.50;37.02;100761.13;5074506;28;1173;-24
2023/06/21 02:17:31;;;;;;;;;;;;;;;28.42;36.92;100764.81;5084113;28;1079;-22
2023/06/21 02:19:57;;;;;;;;;;;;;;;28.38;36.87;100767.03;5082155;28;1074;-24
2023/06/21 02:22:23;;;;;;;;;;;;;;;28.55;36.43;100769.50;5087803;28;1053;-23
2023/06/21 02:24:53;;;;;;;;;;;;;;;28.58;36.93;100767.25;5070736;28;1311;-25
2023/06/21 02:27:18;;;;;;;;;;;;;;;28.54;36.48;100775.97;5075757;28;1019;-22
2023/06/21 02:29:44;;;;;;;;;;;;;;;28.55;37.00;100769.50;5075261;28;1177;-23
2023/06/21 02:32:09;;;;;;;;;;;;;;;28.39;36.69;100768.75;5083360;28;1906;-21
2023/06/21 02:34:35;;;;;;;;;;;;;;;28.60;35.92;100773.31;5080928;28;1164;-22
2023/06/21 02:37:02;;;;;;;;;;;;;;;28.56;36.12;100774.72;5065001;28;1121;-23
2023/06/21 02:39:27;;;;;;;;;;;;;;;28.55;36.55;100773.06;5058544;28;1150;-23
2023/06/21 02:41:54;;;;;;;;;;;;;;;28.59;35.58;100768.09;5069861;28;1210;-25
2023/06/21 02:44:20;;;;;;;;;;;;;;;28.57;35.76;100779.13;5057240;28;2058;-21
2023/06/21 02:46:45;;;;;;;;;;;;;;;28.66;35.90;100777.13;5075460;28;1093;-22
2023/06/21 02:49:11;;;;;;;;;;;;;;;28.66;35.62;100777.13;5079351;28;941;-23
2023/06/21 02:51:36;;;;;;;;;;;;;;;28.67;35.97;100778.81;5068973;28;1967;-23
2023/06/21 02:54:02;;;;;;;;;;;;;;;28.65;35.66;100782.72;5079349;28;2039;-23
2023/06/21 02:56:30;;;;;;;;;;;;;;;28.71;36.15;100780.09;5068651;28;1087;-23
2023/06/21 02:58:55;;;;;;;;;;;;;;;28.65;36.13;100786.28;5065734;28;1193;-24
2023/06/21 03:01:21;;;;;;;;;;;;;;;28.65;36.06;100786.28;5086634;28;899;-22
2023/06/21 03:03:46;;;;;;;;;;;;;;;28.91;36.03;100784.03;5074162;28;1198;-22
2023/06/21 03:06:12;;;;;;;;;;;;;;;29.06;36.10;100783.97;5078926;28;1127;-23
2023/06/21 03:08:38;;;;;;;;;;;;;;;28.92;35.66;100782.97;5080153;28;1113;-22
2023/06/21 03:11:08;;;;;;;;;;;;;;;28.96;36.13;100787.00;5098869;28;1906;-21
2023/06/21 03:13:35;;;;;;;;;;;;;;;28.84;36.34;100790.19;5064877;28;1209;-23
2023/06/21 03:16:02;;;;;;;;;;;;;;;28.84;36.81;100783.97;5078775;28;1140;-24
2023/06/21 03:18:27;;;;;;;;;;;;;;;28.94;36.41;100789.03;5062519;28;1055;-22
2023/06/21 03:20:53;;;;;;;;;;;;;;;29.00;36.08;100780.16;5089882;28;1116;-22
2023/06/21 03:23:18;;;;;;;;;;;;;;;28.94;36.39;100786.34;5062525;28;1186;-22
2023/06/21 03:25:44;;;;;;;;;;;;;;;28.98;36.73;100786.81;5089089;28;885;-23
2023/06/21 03:28:10;;;;;;;;;;;;;;;29.03;35.83;100781.66;5075381;28;1094;-22
2023/06/21 03:30:36;;;;;;;;;;;;;;;29.06;36.54;100783.97;5071858;28;1962;-22
2023/06/21 03:33:01;;;;;;;;;;;;;;;29.03;37.25;100784.38;5080210;28;1070;-22
2023/06/21 03:35:29;;;;;;;;;;;;;;;28.75;37.32;100785.94;5071755;28;1226;-22
2023/06/21 03:37:54;;;;;;;;;;;;;;;28.52;38.09;100786.13;5082925;28;896;-22
2023/06/21 03:40:28;;;;;;;;;;;;;;;28.64;38.12;100789.19;5070644;28;1202;-22
2023/06/21 03:42:54;;;;;;;;;;;;;;;28.75;36.95;100791.38;5076420;28;1157;-22
2023/06/21 03:45:20;;;;;;;;;;;;;;;28.65;37.85;100797.09;5060313;28;1133;-25
2023/06/21 03:47:52;;;;;;;;;;;;;;;27.64;39.96;100791.25;5063832;28;1194;-20
2023/06/21 03:50:17;;;;;;;;;;;;;;;26.85;41.92;100780.63;5087599;28;1144;-21
2023/06/21 03:52:45;;;;;;;;;;;;;;;26.13;43.48;100786.06;5063641;28;1980;-21
2023/06/21 03:55:10;;;;;;;;;;;;;;;25.98;44.29;100793.19;5065770;28;1189;-22
2023/06/21 03:57:36;;;;;;;;;;;;;;;26.04;44.55;100793.34;5097873;28;1202;-22
2023/06/21 04:00:06;;;;;;;;;;;;;;;25.94;44.82;100784.66;5063833;28;1101;-22
2023/06/21 04:02:41;;;;;;;;;;;;;;;25.92;44.93;100784.78;5087614;28;1219;-21
2023/06/21 04:05:06;;;;;;;;;;;;;;;25.65;45.86;100789.63;5066665;28;1294;-21
2023/06/21 04:07:32;;;;;;;;;;;;;;;25.82;45.32;100784.19;5097533;28;1190;-21
2023/06/21 04:09:58;;;;;;;;;;;;;;;25.73;46.13;100793.28;5062659;28;1105;-21
2023/06/21 04:12:24;;;;;;;;;;;;;;;25.67;46.27;100784.06;5062903;28;1973;-22
2023/06/21 04:14:49;;;;;;;;;;;;;;;25.72;45.59;100789.75;5080544;28;1078;-22
2023/06/21 04:17:16;;;;;;;;;;;;;;;25.66;46.00;100790.44;5065901;28;1083;-22
2023/06/21 04:19:42;;;;;;;;;;;;;;;25.82;45.40;100794.94;5097304;28;979;-21
2023/06/21 04:22:07;;;;;;;;;;;;;;;25.55;46.87;100802.38;5078423;28;1177;-21
2023/06/21 04:24:33;;;;;;;;;;;;;;;25.59;47.19;100801.03;5095243;28;1198;-21
2023/06/21 04:26:59;;;;;;;;;;;;;;;25.15;48.77;100808.50;5085218;28;1042;-23
2023/06/21 04:29:24;;;;;;;;;;;;;;;25.23;48.76;100812.16;5063824;28;1284;-21
2023/06/21 04:31:52;;;;;;;;;;;;;;;24.79;50.19;100824.91;5084562;28;1997;-21
2023/06/21 04:34:18;;;;;;;;;;;;;;;25.34;48.63;100811.81;5082695;28;1405;-20
2023/06/21 04:36:47;;;;;;;;;;;;;;;25.78;47.65;100821.41;5085272;28;1121;-21
2023/06/21 04:39:15;;;;;;;;;;;;;;;26.25;45.86;100828.81;5082671;28;1141;-21
2023/06/21 04:41:40;;;;;;;;;;;;;;;26.14;46.07;100816.56;5076790;28;1328;-21
2023/06/21 04:44:06;;;;;;;;;;;;;;;25.20;48.04;100824.13;5084310;28;1214;-22
2023/06/21 04:46:35;;;;;;;;;;;;;;;25.63;47.29;100823.09;5084199;28;1023;-21
2023/06/21 04:49:04;;;;;;;;;;;;;;;25.82;46.83;100815.66;5077356;28;1154;-21
2023/06/21 04:51:32;;;;;;;;;;;;;;;26.17;45.84;100818.91;5090004;28;1905;-21
2023/06/21 04:54:00;;;;;;;;;;;;;;;26.32;45.09;100823.56;5096694;28;1079;-21
2023/06/21 04:56:26;;;;;;;;;;;;;;;26.55;43.95;100831.75;5083089;28;1065;-21
2023/06/21 04:58:52;;;;;;;;;;;;;;;26.69;44.27;100827.47;5076597;28;1027;-21
2023/06/21 05:01:17;;;;;;;;;;;;;;;26.35;45.78;100831.34;5084931;28;1134;-21
2023/06/21 05:03:48;;;;;;;;;;;;;;;26.36;46.15;100831.16;5076906;28;1147;-21
2023/06/21 05:06:17;;;;;;;;;;;;;;;26.16;47.68;100836.94;5076403;28;1186;-21
2023/06/21 05:08:42;;;;;;;;;;;;;;;26.47;46.10;100832.63;5076515;28;1217;-21
2023/06/21 05:11:08;;;;;;;;;;;;;;;26.82;43.86;100829.56;5075440;28;2037;-20
2023/06/21 05:13:33;;;;;;;;;;;;;;;27.12;43.23;100827.00;5079508;28;861;-21
2023/06/21 05:15:59;;;;;;;;;;;;;;;27.15;43.13;100831.19;5084386;28;1297;-21
2023/06/21 05:18:24;;;;;;;;;;;;;;;26.93;44.28;100833.69;5095091;28;1109;-21
2023/06/21 05:20:50;;;;;;;;;;;;;;;27.09;44.29;100835.44;5097303;28;1265;-21
2023/06/21 05:23:15;;;;;;;;;;;;;;;27.17;43.59;100841.81;5096801;28;1222;-21
2023/06/21 05:25:41;;;;;;;;;;;;;;;27.35;42.95;100830.69;5093798;28;1022;-22
2023/06/21 05:28:06;;;;;;;;;;;;;;;27.46;42.40;100832.94;5077489;28;1069;-21
2023/06/21 05:30:32;;;;;;;;;;;;;;;27.36;42.43;100829.69;5089237;28;1050;-21
2023/06/21 05:32:57;;;;;;;;;;;;;;;27.49;41.99;100823.66;5082910;28;1164;-21
2023/06/21 05:35:23;;;;;;;;;;;;;;;27.36;42.10;100826.97;5096587;28;1097;-20
2023/06/21 05:37:48;;;;;;;;;;;;;;;27.33;42.05;100832.72;5072296;28;1097;-21
2023/06/21 05:40:14;;;;;;;;;;;;;;;27.28;42.06;100835.16;5076219;28;1071;-21
2023/06/21 05:42:39;;;;;;;;;;;;;;;27.50;41.60;100838.81;5076213;28;1058;-21
2023/06/21 05:45:06;;;;;;;;;;;;;;;27.59;41.26;100824.19;5076481;28;1062;-22
2023/06/21 05:47:31;;;;;;;;;;;;;;;27.81;41.00;100828.94;5089977;28;1149;-21
2023/06/21 05:49:57;;;;;;;;;;;;;;;27.72;40.60;100829.03;5087160;28;1197;-21
2023/06/21 05:52:22;;;;;;;;;;;;;;;27.65;41.42;100830.75;5078233;28;1973;-20
2023/06/21 05:54:48;;;;;;;;;;;;;;;27.53;41.72;100826.84;5087706;28;1074;-21
2023/06/21 05:57:15;;;;;;;;;;;;;;;27.65;40.93;100825.34;5077864;28;1059;-21
2023/06/21 05:59:43;;;;;;;;;;;;;;;27.59;41.29;100829.59;5076171;28;1331;-21
2023/06/21 06:02:08;;;;;;;;;;;;;;;27.68;41.28;100826.81;5081915;28;1062;-21
2023/06/21 06:04:34;;;;;;;;;;;;;;;27.77;41.21;100831.16;5075803;28;1163;-21
2023/06/21 06:06:59;;;;;;;;;;;;;;;28.01;40.67;100833.78;5081186;28;1159;-20
2023/06/21 06:09:25;;;;;;;;;;;;;;;28.04;41.10;100830.69;5084301;28;1030;-20
2023/06/21 06:11:50;;;;;;;;;;;;;;;28.04;40.51;100828.00;5094050;28;1902;-22
2023/06/21 06:14:16;;;;;;;;;;;;;;;27.94;40.65;100829.13;5083969;28;1062;-22
2023/06/21 06:16:41;;;;;;;;;;;;;;;27.99;40.63;100836.66;5089863;28;1141;-22
2023/06/21 06:19:07;;;;;;;;;;;;;;;28.07;41.39;100833.03;5074962;28;1024;-21
2023/06/21 06:21:32;;;;;;;;;;;;;;;28.32;40.29;100830.00;5073993;28;1269;-21
2023/06/21 06:23:58;;;;;;;;;;;;;;;28.32;40.21;100835.41;5090610;28;1186;-21
2023/06/21 06:26:24;;;;;;;;;;;;;;;28.36;40.98;100840.28;5085872;28;1175;-20
2023/06/21 06:28:50;;;;;;;;;;;;;;;28.37;40.99;100833.00;5079016;28;1142;-21
2023/06/21 06:31:18;;;;;;;;;;;;;;;28.25;41.19;100835.34;5079528;28;1922;-20
2023/06/21 06:33:43;;;;;;;;;;;;;;;28.31;41.58;100834.56;5090718;28;1102;-21
2023/06/21 06:36:09;;;;;;;;;;;;;;;28.29;41.00;100828.53;5094519;28;1070;-22
2023/06/21 06:38:34;;;;;;;;;;;;;;;28.46;40.88;100831.88;5080112;28;1340;-20
2023/06/21 06:41:00;;;;;;;;;;;;;;;28.57;40.68;100838.66;5086330;28;1246;-21
2023/06/21 06:43:25;;;;;;;;;;;;;;;28.70;39.81;100823.59;5097444;28;1057;-21
2023/06/21 06:45:51;;;;;;;;;;;;;;;28.57;40.11;100829.69;5096350;28;1022;-21
2023/06/21 06:48:16;;;;;;;;;;;;;;;28.79;39.98;100830.56;5088058;28;1200;-21
2023/06/21 06:50:43;;;;;;;;;;;;;;;28.64;40.39;100830.63;5096871;28;1906;-21
2023/06/21 06:53:08;;;;;;;;;;;;;;;28.82;39.96;100832.03;5088206;28;1056;-22
2023/06/21 06:55:34;;;;;;;;;;;;;;;28.87;39.93;100834.16;5096901;28;1185;-21
2023/06/21 06:58:01;;;;;;;;;;;;;;;28.71;39.89;100825.28;5079553;28;1157;-21
2023/06/21 07:00:26;;;;;;;;;;;;;;;29.07;39.00;100823.56;5079136;28;1134;-22
2023/06/21 07:02:56;;;;;;;;;;;;;;;29.07;38.62;100823.56;5082772;28;1285;-21
2023/06/21 07:05:25;;;;;;;;;;;;;;;29.00;39.18;100828.06;5082181;28;1060;-21
2023/06/21 07:07:50;;;;;;;;;;;;;;;29.02;38.96;100818.72;5088775;28;955;-21
2023/06/21 07:10:16;;;;;;;;;;;;;;;28.97;39.06;100818.47;5080097;28;1210;-21
2023/06/21 07:12:42;;;;;;;;;;;;;;;29.07;38.50;100821.69;5088489;28;1918;-21
2023/06/21 07:15:07;;;;;;;;;;;;;;;29.14;37.79;100821.75;5080260;28;1089;-22
2023/06/21 07:17:33;;;;;;;;;;;;;;;29.10;38.00;100817.75;5078877;28;1103;-21
2023/06/21 07:19:58;;;;;;;;;;;;;;;29.25;37.52;100820.38;5080271;28;1205;-21
2023/06/21 07:22:24;;;;;;;;;;;;;;;29.28;37.19;100821.88;5098993;28;1093;-21
2023/06/21 07:24:49;;;;;;;;;;;;;;;29.14;37.14;100823.63;5083298;28;1039;-22
2023/06/21 07:27:15;;;;;;;;;;;;;;;29.27;36.46;100812.91;5080683;28;1317;-21
2023/06/21 07:29:40;;;;;;;;;;;;;;;29.19;36.15;100810.34;5078269;28;1102;-21
2023/06/21 07:32:06;;;;;;;;;;;;;;;29.25;35.85;100811.41;5060511;28;1914;-21
2023/06/21 07:34:31;;;;;;;;;;;;;;;29.23;36.28;100805.38;5079473;28;1074;-22
2023/06/21 07:36:57;;;;;;;;;;;;;;;29.38;35.10;100808.81;5098436;28;1217;-21
2023/06/21 07:39:22;;;;;;;;;;;;;;;29.31;35.33;100803.31;5082599;28;1059;-21
2023/06/21 07:41:48;;;;;;;;;;;;;;;29.32;34.44;100810.44;5078398;28;1308;-21
2023/06/21 07:44:13;;;;;;;;;;;;;;;29.31;34.90;100807.94;5077996;28;1280;-21
2023/06/21 07:46:39;;;;;;;;;;;;;;;29.37;33.99;100807.13;5078602;28;1249;-22
2023/06/21 07:49:04;;;;;;;;;;;;;;;29.46;34.65;100814.06;5080951;28;1210;-21
2023/06/21 07:51:30;;;;;;;;;;;;;;;29.54;34.79;100804.13;5096767;28;1910;-20
2023/06/21 07:53:55;;;;;;;;;;;;;;;29.61;35.18;100810.47;5085186;28;1177;-21
2023/06/21 07:56:21;;;;;;;;;;;;;;;29.53;34.38;100807.88;5077095;28;1202;-22
2023/06/21 07:58:47;;;;;;;;;;;;;;;29.25;35.19;100809.53;5077270;28;1183;-21
2023/06/21 08:01:12;;;;;;;;;;;;;;;29.55;34.41;100805.78;5077791;28;1163;-21
2023/06/21 08:03:39;;;;;;;;;;;;;;;29.34;35.34;100794.81;5077337;28;1162;-22
2023/06/21 08:06:04;;;;;;;;;;;;;;;25.74;42.14;100801.19;5080505;28;1265;-22
2023/06/21 08:08:30;;;;;;;;;;;;;;;23.79;47.10;100795.78;5092366;28;1317;-21
2023/06/21 08:10:56;;;;;;;;;;;;;;;23.14;49.07;100788.94;5097735;28;1909;-23
2023/06/21 08:13:22;;;;;;;;;;;;;;;22.69;49.88;100789.69;5096958;28;1090;-22
2023/06/21 08:15:48;;;;;;;;;;;;;;;22.51;50.53;100792.31;5087792;28;903;-21
2023/06/21 08:18:13;;;;;;;;;;;;;;;22.46;50.05;100799.97;5077205;28;1075;-22
2023/06/21 08:20:40;;;;;;;;;;;;;;;22.89;53.22;100788.72;5084734;28;1055;-22
2023/06/21 08:23:06;;;;;;;;;;;;;;;25.92;42.30;100789.38;5084476;28;1217;-21
2023/06/21 08:25:32;;;;;;;;;;;;;;;23.21;48.36;100790.84;5090809;28;1043;-23
2023/06/21 08:27:57;;;;;;;;;;;;;;;22.39;50.37;100789.84;5080961;28;988;-21
2023/06/21 08:30:23;;;;;;;;;;;;;;;22.16;50.94;100789.41;5077239;28;1136;-21
2023/06/21 08:32:48;;;;;;;;;;;;;;;23.67;49.20;100787.13;5077127;28;1902;-22
2023/06/21 08:35:14;;;;;;;;;;;;;;;25.59;42.92;100797.50;5097384;28;1292;-21
2023/06/21 08:37:39;;;;;;;;;;;;;;;22.74;49.63;100797.28;5083193;28;1225;-23
2023/06/21 08:40:05;;;;;;;;;;;;;;;22.27;53.79;100791.88;5084724;28;1424;-24
2023/06/21 08:42:31;;;;;;;;;;;;;;;25.36;44.54;100792.84;5089061;28;1153;-22
2023/06/21 08:44:56;;;;;;;;;;;;;;;23.45;46.77;100794.75;5071368;28;1082;-23
2023/06/21 08:47:26;;;;;;;;;;;;;;;22.93;52.55;100793.63;5083600;28;1146;-21
2023/06/21 08:49:52;;;;;;;;;;;;;;;25.88;42.26;100798.78;5066873;28;1114;-23
2023/06/21 08:52:18;;;;;;;;;;;;;;;23.02;48.26;100791.00;5073549;28;1902;-22
2023/06/21 08:54:44;;;;;;;;;;;;;;;23.56;43.88;100793.63;5075775;28;1261;-23
2023/06/21 08:57:11;;;;;;;;;;;;;;;25.72;41.00;100795.16;5058508;28;1163;-22
2023/06/21 08:59:39;;;;;;;;;;;;;;;22.39;48.82;100794.34;5058764;28;1075;-22
2023/06/21 09:02:05;;;;;;;;;;;;;;;25.03;44.02;100801.75;5074799;28;1161;-22
2023/06/21 09:04:31;;;;;;;;;;;;;;;23.72;46.10;100797.44;5082348;28;1208;-21
2023/06/21 09:06:56;;;;;;;;;;;;;;;22.38;52.04;100801.56;5059377;28;1262;-22
2023/06/21 09:09:22;;;;;;;;;;;;;;;25.26;43.69;100801.06;5076806;28;1183;-22
2023/06/21 09:11:47;;;;;;;;;;;;;;;23.30;47.44;100791.75;5076408;28;1902;-21
2023/06/21 09:14:13;;;;;;;;;;;;;;;22.62;53.36;100785.94;5084428;28;1234;-21
2023/06/21 09:16:39;;;;;;;;;;;;;;;25.52;42.83;100797.34;5081385;28;932;-21
2023/06/21 09:19:04;;;;;;;;;;;;;;;23.00;48.27;100794.66;5083787;28;1095;-22
2023/06/21 09:21:30;;;;;;;;;;;;;;;23.45;50.23;100794.75;5096972;28;1285;-22
2023/06/21 09:23:56;;;;;;;;;;;;;;;25.88;41.82;100796.94;5096937;28;1261;-21
2023/06/21 09:26:21;;;;;;;;;;;;;;;22.60;49.62;100795.94;5096564;28;1253;-22
2023/06/21 09:28:47;;;;;;;;;;;;;;;22.07;54.45;100799.16;5089239;28;1261;-21
2023/06/21 09:31:12;;;;;;;;;;;;;;;25.10;44.44;100804.59;5076161;28;1910;-22
2023/06/21 09:33:38;;;;;;;;;;;;;;;23.10;48.27;100791.94;5076289;28;1171;-21
2023/06/21 09:36:04;;;;;;;;;;;;;;;21.97;52.87;100795.72;5087288;28;1237;-21
2023/06/21 09:38:35;;;;;;;;;;;;;;;24.90;45.46;100794.13;5083140;28;1154;-22
2023/06/21 09:41:01;;;;;;;;;;;;;;;23.05;48.57;100786.19;5084972;28;1089;-21
2023/06/21 09:43:26;;;;;;;;;;;;;;;22.32;55.38;100787.94;5081364;28;1074;-22
2023/06/21 09:46:13;;;;;;;;;;;;;;;25.29;44.49;100793.50;5076382;28;1058;-21
2023/06/21 09:48:38;;;;;;;;;;;;;;;22.66;49.53;100790.00;5078119;28;1166;-21
2023/06/21 09:51:08;;;;;;;;;;;;;;;24.23;45.64;100785.94;5095720;28;1972;-21
2023/06/21 09:53:34;;;;;;;;;;;;;;;26.19;40.41;100787.25;5082684;28;1181;-22
2023/06/21 09:56:00;;;;;;;;;;;;;;;27.06;37.97;100786.41;5082577;28;1268;-22
2023/06/21 09:58:25;;;;;;;;;;;;;;;27.63;37.29;100793.09;5098967;28;1098;-22
2023/06/21 10:00:51;;;;;;;;;;;;;;;27.56;37.17;100784.03;5086688;28;1074;-22
2023/06/21 10:03:20;;;;;;;;;;;;;;;27.86;36.85;100783.25;5095706;28;1065;-22
2023/06/21 10:05:52;;;;;;;;;;;;;;;28.01;35.99;100774.28;5084068;28;1096;-23
2023/06/21 10:08:22;;;;;;;;;;;;;;;28.06;36.17;100782.69;5080206;28;1297;-21
2023/06/21 10:10:47;;;;;;;;;;;;;;;28.08;35.87;100776.03;5096629;28;1968;-21
2023/06/21 10:13:13;;;;;;;;;;;;;;;28.13;35.71;100767.34;5100145;28;1134;-21
2023/06/21 10:15:38;;;;;;;;;;;;;;;28.22;35.10;100774.34;5091433;28;1226;-22
2023/06/21 10:18:06;;;;;;;;;;;;;;;28.18;35.71;100773.03;5083636;28;1301;-22
2023/06/21 10:20:31;;;;;;;;;;;;;;;28.18;35.41;100777.59;5077707;28;1141;-21
2023/06/21 10:22:57;;;;;;;;;;;;;;;28.20;35.36;100778.25;5079740;28;1296;-23
2023/06/21 10:25:22;;;;;;;;;;;;;;;28.39;34.47;100774.16;5074933;28;1051;-23
2023/06/21 10:27:48;;;;;;;;;;;;;;;28.41;34.87;100773.97;5069964;28;1063;-22
2023/06/21 10:30:14;;;;;;;;;;;;;;;28.42;34.74;100772.91;5086750;28;1086;-21
2023/06/21 10:32:39;;;;;;;;;;;;;;;28.50;35.17;100767.38;5070049;28;1985;-21
2023/06/21 10:35:05;;;;;;;;;;;;;;;28.61;35.21;100768.75;5078142;28;1043;-22
2023/06/21 10:37:33;;;;;;;;;;;;;;;28.57;35.06;100770.16;5078984;28;1334;-22
2023/06/21 10:40:06;;;;;;;;;;;;;;;28.60;34.73;100769.78;5078854;28;1222;-21
2023/06/21 10:42:32;;;;;;;;;;;;;;;28.67;35.36;100767.13;5091540;28;1206;-21
2023/06/21 10:44:58;;;;;;;;;;;;;;;28.77;35.23;100772.22;5092815;28;1157;-21
2023/06/21 10:47:24;;;;;;;;;;;;;;;28.75;35.44;100771.56;5079951;28;1226;-22
2023/06/21 10:49:49;;;;;;;;;;;;;;;28.68;35.50;100766.09;5092592;28;1138;-21
2023/06/21 10:52:15;;;;;;;;;;;;;;;28.73;35.67;100760.94;5081161;28;1942;-20
2023/06/21 10:54:40;;;;;;;;;;;;;;;28.71;35.71;100769.25;5086047;28;1057;-22
2023/06/21 10:57:06;;;;;;;;;;;;;;;28.80;35.78;100769.97;5098723;28;1023;-22
2023/06/21 10:59:31;;;;;;;;;;;;;;;28.82;35.83;100773.31;5062162;28;1106;-23
2023/06/21 11:01:57;;;;;;;;;;;;;;;28.84;35.81;100765.00;5078992;28;1207;-21
2023/06/21 11:04:22;;;;;;;;;;;;;;;28.85;35.87;100767.53;5084522;28;1108;-22
2023/06/21 11:06:48;;;;;;;;;;;;;;;28.73;36.14;100763.66;5078721;28;1250;-22
2023/06/21 11:09:16;;;;;;;;;;;;;;;28.81;36.13;100768.13;5073712;28;1298;-22
2023/06/21 11:11:51;;;;;;;;;;;;;;;28.73;35.99;100764.50;5079249;28;1969;-22
2023/06/21 11:14:28;;;;;;;;;;;;;;;28.76;35.85;100757.03;5078822;28;1185;-21
2023/06/21 11:17:04;;;;;;;;;;;;;;;28.83;36.11;100761.47;5080259;28;1197;-21
2023/06/21 11:19:29;;;;;;;;;;;;;;;28.93;35.79;100765.69;5078541;28;1588;-21
2023/06/21 11:21:55;;;;;;;;;;;;;;;28.87;36.10;100763.78;5063865;28;1234;-23
2023/06/21 11:24:20;;;;;;;;;;;;;;;28.81;36.25;100760.81;5071200;28;1108;-22
2023/06/21 11:26:53;;;;;;;;;;;;;;;28.91;36.13;100757.75;5070898;28;1130;-22
2023/06/21 11:29:18;;;;;;;;;;;;;;;28.92;36.21;100764.88;5083969;28;1082;-23
2023/06/21 11:31:44;;;;;;;;;;;;;;;29.03;36.21;100762.72;5094499;28;1914;-22
2023/06/21 11:34:31;;;;;;;;;;;;;;;29.04;36.20;100765.22;5097148;28;1094;-22
2023/06/21 11:36:56;;;;;;;;;;;;;;;28.84;36.14;100763.13;5088632;28;1093;-23
2023/06/21 11:39:22;;;;;;;;;;;;;;;28.94;36.26;100751.13;5098014;28;1320;-23
2023/06/21 11:41:47;;;;;;;;;;;;;;;28.98;36.28;100759.75;5084802;28;1355;-21
2023/06/21 11:44:13;;;;;;;;;;;;;;;29.11;36.07;100748.19;5091180;28;1138;-22
2023/06/21 11:46:39;;;;;;;;;;;;;;;29.10;36.33;100758.16;5098433;28;1467;-22
2023/06/21 11:49:05;;;;;;;;;;;;;;;29.06;36.19;100752.28;5098471;28;1335;-22
2023/06/21 11:51:31;;;;;;;;;;;;;;;29.03;36.17;100754.59;5097932;28;1976;-21
2023/06/21 11:53:56;;;;;;;;;;;;;;;29.11;36.11;100756.31;5098318;28;1363;-21
2023/06/21 11:56:22;;;;;;;;;;;;;;;29.07;36.13;100753.16;5080057;28;1399;-21
2023/06/21 11:58:48;;;;;;;;;;;;;;;29.15;36.21;100757.56;5097571;28;1320;-22
2023/06/21 12:01:16;;;;;;;;;;;;;;;28.96;36.49;100752.59;5077836;28;1058;-22
2023/06/21 12:03:42;;;;;;;;;;;;;;;29.08;35.84;100760.22;5078465;28;1272;-22
2023/06/21 12:06:07;;;;;;;;;;;;;;;29.00;35.84;100761.22;5098151;28;1426;-22
2023/06/21 12:08:36;;;;;;;;;;;;;;;28.92;35.88;100758.63;5098024;28;1383;-22
2023/06/21 12:11:03;;;;;;;;;;;;;;;28.86;36.54;100768.38;5083939;28;1918;-21
2023/06/21 12:13:28;;;;;;;;;;;;;;;28.83;36.43;100788.53;5082763;28;1276;-22
2023/06/21 12:15:54;;;;;;;;;;;;;;;28.79;36.55;100791.81;5085327;28;1148;-23
2023/06/21 12:18:23;;;;;;;;;;;;;;;28.93;36.61;100795.47;5097779;28;1300;-21
2023/06/21 12:20:49;;;;;;;;;;;;;;;28.86;36.53;100798.16;5096435;28;1331;-22
2023/06/21 12:23:15;;;;;;;;;;;;;;;28.84;36.82;100797.50;5085914;28;1212;-21
2023/06/21 12:25:42;;;;;;;;;;;;;;;28.84;36.77;100789.38;5081928;28;1308;-22
2023/06/21 12:28:07;;;;;;;;;;;;;;;28.86;38.20;100779.19;5097485;28;1154;-24
2023/06/21 12:30:33;;;;;;;;;;;;;;;28.65;40.49;100780.88;5074852;28;1114;-24
2023/06/21 12:32:58;;;;;;;;;;;;;;;28.54;40.41;100782.22;5059476;28;1965;-23
2023/06/21 12:35:24;;;;;;;;;;;;;;;28.66;39.64;100774.41;5092332;28;1094;-22
2023/06/21 12:37:49;;;;;;;;;;;;;;;28.70;40.14;100772.16;5096975;28;1054;-22
2023/06/21 12:40:18;;;;;;;;;;;;;;;28.60;41.12;100780.59;5096496;28;1133;-22
2023/06/21 12:42:44;;;;;;;;;;;;;;;28.64;40.64;100775.66;5096863;28;1316;-22